Time;durP1;ratioP1;P1;durP2;ratioP2;P2;SDS_P1;SDS_P2;PMS_P1;PMS_P2;Temp;Humidity;BMP_temperature;BMP_pressure;BME280_temperature;BME280_humidity;BME280_pressure;Samples;Min_cycle;Max_cycle;Signal;HPM_P1;HPM_P2
2023/04/13 00:00:31;;;;;;;10.50;10.30;;;9.30;64.20;;;;;;5097835;28;20453;-79
2023/04/13 00:03:00;;;;;;;10.80;10.60;;;9.30;99.90;;;;;;5096441;28;20950;-80
2023/04/13 00:05:30;;;;;;;10.80;10.60;;;9.30;99.90;;;;;;5094337;28;21294;-79
2023/04/13 00:08:01;;;;;;;10.93;10.73;;;9.40;99.90;;;;;;5097287;28;20451;-80
2023/04/13 00:10:34;;;;;;;10.80;10.60;;;9.30;99.90;;;;;;5097453;28;20453;-80
2023/04/13 00:13:04;;;;;;;10.90;10.70;;;9.30;99.90;;;;;;5098892;28;20889;-76
2023/04/13 00:15:35;;;;;;;11.10;10.80;;;9.30;99.90;;;;;;5106808;28;20461;-80
2023/04/13 00:18:04;;;;;;;11.30;11.10;;;9.30;99.90;;;;;;5105612;27;20483;-80
2023/04/13 00:20:32;;;;;;;10.70;10.50;;;9.30;99.90;;;;;;5105560;27;20500;-78
2023/04/13 00:23:00;;;;;;;11.50;11.20;;;9.20;99.90;;;;;;5103984;28;20453;-80
2023/04/13 00:25:29;;;;;;;11.10;10.90;;;9.30;99.90;;;;;;5105348;28;20480;-79
2023/04/13 00:28:01;;;;;;;11.30;11.00;;;9.30;99.90;;;;;;5106767;28;20471;-79
2023/04/13 00:30:29;;;;;;;11.17;10.97;;;9.30;99.90;;;;;;5102120;28;20492;-79
2023/04/13 00:32:59;;;;;;;11.10;10.90;;;9.30;99.90;;;;;;5102729;28;20469;-77
2023/04/13 00:35:27;;;;;;;11.40;11.20;;;9.30;99.90;;;;;;5099494;28;20520;-77
2023/04/13 00:37:57;;;;;;;10.80;10.60;;;9.30;37.50;;;;;;5102832;27;20452;-79
2023/04/13 00:40:26;;;;;;;10.80;10.60;;;9.30;1.00;;;;;;5084306;28;20515;-78
2023/04/13 00:42:55;;;;;;;10.40;10.20;;;9.20;1.00;;;;;;5101342;28;20445;-78
2023/04/13 00:45:23;;;;;;;10.30;10.10;;;9.20;1.00;;;;;;5088421;28;20483;-79
2023/04/13 00:47:52;;;;;;;10.60;10.40;;;9.20;1.00;;;;;;5098933;28;20537;-77
2023/04/13 00:50:22;;;;;;;10.67;10.47;;;9.20;1.00;;;;;;5101491;28;20489;-79
2023/04/13 00:52:50;;;;;;;10.20;10.00;;;9.20;1.00;;;;;;5100997;28;20473;-77
2023/04/13 00:55:20;;;;;;;10.43;10.23;;;9.20;1.00;;;;;;5103247;28;20484;-79
2023/04/13 00:57:51;;;;;;;10.20;10.00;;;9.20;1.00;;;;;;5102649;28;20526;-78
2023/04/13 01:00:20;;;;;;;10.40;10.10;;;9.20;1.00;;;;;;5098724;28;20449;-78
2023/04/13 01:02:49;;;;;;;10.37;10.17;;;9.20;1.00;;;;;;5081599;28;20464;-79
2023/04/13 01:05:18;;;;;;;10.50;10.30;;;9.20;1.00;;;;;;5097727;28;20483;-76
2023/04/13 01:08:00;;;;;;;10.30;10.10;;;9.30;1.00;;;;;;5099026;28;21032;-73
2023/04/13 01:10:35;;;;;;;10.80;10.60;;;9.30;1.00;;;;;;5097971;28;20890;-77
2023/04/13 01:13:10;;;;;;;10.30;10.10;;;9.20;1.00;;;;;;5096661;28;20547;-78
2023/04/13 01:15:41;;;;;;;10.00;9.80;;;9.20;1.00;;;;;;5098836;28;21304;-79
2023/04/13 01:18:11;;;;;;;10.20;10.00;;;9.10;1.00;;;;;;5098567;28;21138;-79
2023/04/13 01:20:43;;;;;;;9.93;9.80;;;9.00;1.00;;;;;;5102495;28;21177;-79
2023/04/13 01:23:27;;;;;;;10.73;10.50;;;9.00;1.00;;;;;;5100514;28;20448;-76
2023/04/13 01:25:57;;;;;;;10.23;10.03;;;9.00;1.00;;;;;;5097967;28;20472;-77
2023/04/13 01:28:28;;;;;;;10.57;10.13;;;9.00;1.00;;;;;;5084147;28;20506;-78
2023/04/13 01:30:59;;;;;;;10.43;10.23;;;9.00;1.00;;;;;;5096462;28;20471;-79
2023/04/13 01:33:29;;;;;;;10.73;10.40;;;9.00;1.00;;;;;;5099409;28;20466;-79
2023/04/13 01:35:59;;;;;;;10.30;10.13;;;8.90;1.00;;;;;;5097127;28;20467;-78
2023/04/13 01:38:27;;;;;;;9.90;9.70;;;9.00;1.00;;;;;;5096448;28;20460;-79
2023/04/13 01:40:56;;;;;;;10.40;10.00;;;8.90;1.00;;;;;;5099465;28;20981;-77
2023/04/13 01:43:25;;;;;;;10.40;10.20;;;9.00;1.00;;;;;;5099278;28;20953;-78
2023/04/13 01:46:00;;;;;;;9.80;9.60;;;8.90;1.00;;;;;;5101989;28;20510;-78
2023/04/13 01:48:33;;;;;;;9.80;9.60;;;8.80;1.00;;;;;;5095924;28;20440;-79
2023/04/13 01:51:07;;;;;;;9.90;9.70;;;8.80;1.00;;;;;;5098289;28;20517;-80
2023/04/13 01:53:40;;;;;;;9.80;9.70;;;8.80;1.00;;;;;;5099031;28;20508;-79
2023/04/13 01:56:11;;;;;;;10.27;10.00;;;8.70;1.00;;;;;;5097772;28;20477;-80
2023/04/13 01:58:41;;;;;;;10.10;9.90;;;8.80;1.00;;;;;;5082668;28;20466;-80
2023/04/13 02:01:11;;;;;;;10.00;9.80;;;8.80;1.00;;;;;;5082238;28;20499;-79
2023/04/13 02:03:41;;;;;;;10.03;9.83;;;8.80;1.00;;;;;;5100525;28;20548;-80
2023/04/13 02:06:10;;;;;;;10.07;9.87;;;8.80;1.00;;;;;;5099634;28;20494;-79
2023/04/13 02:08:39;;;;;;;9.90;9.70;;;8.80;1.00;;;;;;5098503;28;20453;-79
2023/04/13 02:11:07;;;;;;;10.20;9.90;;;8.80;1.00;;;;;;5097498;28;20470;-79
2023/04/13 02:13:36;;;;;;;9.87;9.57;;;8.80;1.00;;;;;;5099382;28;20480;-79
2023/04/13 02:16:06;;;;;;;9.60;9.40;;;8.70;1.00;;;;;;5097071;28;20477;-80
2023/04/13 02:18:35;;;;;;;10.00;9.80;;;8.70;1.00;;;;;;5099562;27;20833;-76
2023/04/13 02:21:08;;;;;;;10.13;9.93;;;8.70;1.00;;;;;;5096439;28;21040;-80
2023/04/13 02:23:37;;;;;;;10.00;9.80;;;8.70;1.00;;;;;;5099607;28;21313;-80
2023/04/13 02:26:07;;;;;;;10.13;9.93;;;8.70;1.00;;;;;;5097751;28;20992;-78
2023/04/13 02:28:35;;;;;;;10.57;10.27;;;8.60;1.00;;;;;;5099351;28;20854;-79
2023/04/13 02:31:04;;;;;;;10.10;9.87;;;8.60;15.90;;;;;;5089977;28;20460;-78
2023/04/13 02:33:33;;;;;;;10.30;10.10;;;8.50;1.00;;;;;;5099470;28;20480;-76
2023/04/13 02:36:03;;;;;;;9.90;9.70;;;8.60;1.90;;;;;;5099558;28;20478;-79
2023/04/13 02:38:32;;;;;;;9.50;9.37;;;8.60;1.00;;;;;;5100103;28;21249;-79
2023/04/13 02:41:01;;;;;;;9.93;9.70;;;8.50;16.10;;;;;;5097772;28;21103;-78
2023/04/13 02:43:29;;;;;;;10.23;9.70;;;8.50;31.70;;;;;;5095896;28;20570;-80
2023/04/13 02:45:58;;;;;;;10.07;9.87;;;8.40;31.40;;;;;;5098601;28;20464;-79
2023/04/13 02:48:27;;;;;;;9.87;9.60;;;8.40;53.00;;;;;;5077641;28;20456;-79
2023/04/13 02:50:55;;;;;;;9.73;9.57;;;8.40;52.60;;;;;;5095778;28;20453;-80
2023/04/13 02:53:24;;;;;;;10.40;9.97;;;8.40;87.50;;;;;;5099344;28;20449;-80
2023/04/13 02:55:54;;;;;;;10.33;10.00;;;8.30;73.20;;;;;;5077867;28;20479;-79
2023/04/13 02:58:22;;;;;;;9.77;9.57;;;8.40;87.20;;;;;;5109735;28;20453;-78
2023/04/13 03:00:51;;;;;;;9.80;9.60;;;8.40;51.90;;;;;;5107184;28;20452;-79
2023/04/13 03:03:19;;;;;;;9.40;9.20;;;8.40;50.60;;;;;;5109562;28;20464;-80
2023/04/13 03:05:49;;;;;;;9.50;9.30;;;8.40;11.30;;;;;;5104930;28;20471;-78
2023/04/13 03:08:17;;;;;;;9.60;9.40;;;8.30;47.10;;;;;;5100281;28;20439;-78
2023/04/13 03:10:47;;;;;;;9.70;9.50;;;8.30;70.90;;;;;;5087293;28;20536;-78
2023/04/13 03:13:15;;;;;;;9.30;9.10;;;8.20;98.40;;;;;;5085684;28;20491;-78
2023/04/13 03:15:43;;;;;;;9.40;9.20;;;8.10;99.90;;;;;;5102416;28;20478;-75
2023/04/13 03:18:12;;;;;;;10.07;9.70;;;8.20;99.90;;;;;;5100861;28;20462;-78
2023/04/13 03:20:40;;;;;;;10.00;9.80;;;8.20;99.90;;;;;;5099455;28;20468;-78
2023/04/13 03:23:08;;;;;;;9.90;9.60;;;8.20;99.90;;;;;;5099260;28;20750;-80
2023/04/13 03:25:36;;;;;;;9.90;9.70;;;8.20;99.90;;;;;;5099486;28;20499;-79
2023/04/13 03:28:06;;;;;;;9.40;9.30;;;8.10;99.90;;;;;;5100663;28;20488;-80
2023/04/13 03:30:34;;;;;;;10.00;9.80;;;8.10;99.90;;;;;;5089595;28;20462;-77
2023/04/13 03:33:02;;;;;;;10.47;10.17;;;8.10;99.90;;;;;;5098897;28;20452;-78
2023/04/13 03:35:31;;;;;;;10.70;10.30;;;8.10;99.90;;;;;;5100568;28;20491;-79
2023/04/13 03:37:59;;;;;;;10.00;9.80;;;8.10;93.50;;;;;;5099002;28;20489;-81
2023/04/13 03:40:27;;;;;;;10.27;9.87;;;8.10;98.60;;;;;;5101580;28;20443;-80
2023/04/13 03:42:55;;;;;;;9.80;9.60;;;8.20;89.60;;;;;;5102438;28;20497;-79
2023/04/13 03:45:24;;;;;;;9.80;9.60;;;8.20;36.80;;;;;;5104362;28;20969;-79
2023/04/13 03:47:52;;;;;;;10.03;9.70;;;8.20;34.00;;;;;;5103133;28;20455;-78
2023/04/13 03:50:21;;;;;;;9.80;9.57;;;8.10;6.40;;;;;;5103976;28;20461;-77
2023/04/13 03:52:49;;;;;;;9.80;9.50;;;8.00;8.10;;;;;;5099083;28;20460;-78
2023/04/13 03:55:18;;;;;;;10.10;9.90;;;8.10;17.40;;;;;;5101611;28;20501;-76
2023/04/13 03:57:46;;;;;;;9.70;9.50;;;8.00;1.00;;;;;;5104949;28;20456;-79
2023/04/13 04:00:15;;;;;;;9.30;9.10;;;7.90;1.00;;;;;;5101922;28;20522;-79
2023/04/13 04:02:45;;;;;;;8.83;8.53;;;8.10;1.00;;;;;;5097018;28;20981;-77
2023/04/13 04:05:15;;;;;;;9.00;8.80;;;8.10;1.00;;;;;;5100185;28;20515;-78
2023/04/13 04:07:43;;;;;;;8.97;8.77;;;8.10;1.00;;;;;;5104501;28;21311;-78
2023/04/13 04:10:11;;;;;;;8.90;8.70;;;8.20;1.00;;;;;;5105002;28;20539;-78
2023/04/13 04:12:39;;;;;;;9.37;9.10;;;8.20;1.00;;;;;;5106686;28;20551;-79
2023/04/13 04:15:08;;;;;;;9.43;9.13;;;8.20;1.00;;;;;;5105737;28;20479;-80
2023/04/13 04:17:36;;;;;;;9.43;9.23;;;8.20;1.00;;;;;;5105224;28;20483;-79
2023/04/13 04:20:09;;;;;;;9.70;9.40;;;8.20;1.00;;;;;;5101779;28;20445;-79
2023/04/13 04:22:38;;;;;;;9.43;9.23;;;8.20;1.00;;;;;;5097866;28;20530;-80
2023/04/13 04:25:07;;;;;;;10.03;9.57;;;8.20;1.00;;;;;;5104542;28;20501;-79
2023/04/13 04:27:37;;;;;;;9.73;9.40;;;8.20;1.00;;;;;;5101084;28;20441;-76
2023/04/13 04:30:09;;;;;;;9.60;9.20;;;8.40;1.00;;;;;;5092358;28;20444;-77
2023/04/13 04:32:39;;;;;;;9.23;9.03;;;8.40;1.00;;;;;;5100075;28;20474;-79
2023/04/13 04:35:11;;;;;;;9.90;9.40;;;8.30;1.00;;;;;;5098393;28;20485;-80
2023/04/13 04:37:39;;;;;;;10.77;10.37;;;8.40;1.00;;;;;;5106483;28;20454;-79
2023/04/13 04:40:11;;;;;;;9.87;9.67;;;8.20;1.00;;;;;;5104223;28;20444;-79
2023/04/13 04:42:40;;;;;;;10.17;9.77;;;8.30;1.00;;;;;;5103359;28;20491;-79
2023/04/13 04:45:10;;;;;;;10.23;9.83;;;8.30;1.00;;;;;;5100597;28;20450;-80
2023/04/13 04:47:40;;;;;;;9.80;9.50;;;8.30;1.00;;;;;;5103108;28;20531;-78
2023/04/13 04:50:13;;;;;;;9.90;9.40;;;8.30;1.00;;;;;;5102342;28;20441;-78
2023/04/13 04:52:41;;;;;;;9.50;9.30;;;8.20;1.00;;;;;;5102308;28;20482;-79
2023/04/13 04:55:10;;;;;;;9.40;9.10;;;8.00;1.00;;;;;;5098581;28;20491;-79
2023/04/13 04:57:38;;;;;;;9.87;9.50;;;8.00;1.00;;;;;;5101394;28;20497;-79
2023/04/13 05:00:14;;;;;;;9.80;9.50;;;8.10;1.00;;;;;;5101373;28;20456;-79
2023/04/13 05:02:42;;;;;;;9.17;8.87;;;8.10;1.00;;;;;;5101744;28;20517;-79
2023/04/13 05:05:12;;;;;;;9.20;8.90;;;8.20;1.00;;;;;;5099811;28;20484;-78
2023/04/13 05:07:40;;;;;;;10.07;9.70;;;8.30;1.00;;;;;;5103659;28;20472;-79
2023/04/13 05:10:09;;;;;;;9.63;9.33;;;8.20;1.00;;;;;;5099076;28;20476;-79
2023/04/13 05:12:37;;;;;;;9.70;9.40;;;8.30;1.00;;;;;;5101095;28;20459;-79
2023/04/13 05:15:07;;;;;;;11.43;10.60;;;8.30;1.00;;;;;;5103833;28;20478;-78
2023/04/13 05:17:36;;;;;;;8.80;8.60;;;8.30;1.00;;;;;;5100554;28;20497;-79
2023/04/13 05:20:05;;;;;;;8.80;8.60;;;8.30;1.00;;;;;;5100971;28;20503;-79
2023/04/13 05:22:35;;;;;;;9.40;9.00;;;8.20;1.00;;;;;;5084026;28;20464;-79
2023/04/13 05:25:03;;;;;;;9.03;8.83;;;8.30;1.00;;;;;;5104923;27;20483;-77
2023/04/13 05:27:31;;;;;;;8.70;8.50;;;8.30;1.00;;;;;;5097823;28;20532;-80
2023/04/13 05:29:59;;;;;;;9.27;8.80;;;8.30;1.00;;;;;;5091440;28;20456;-78
2023/04/13 05:32:27;;;;;;;8.90;8.60;;;8.40;1.00;;;;;;5098669;28;20439;-76
2023/04/13 05:34:56;;;;;;;8.70;8.50;;;8.20;1.00;;;;;;5098883;28;20471;-78
2023/04/13 05:37:24;;;;;;;8.57;8.30;;;8.20;1.00;;;;;;5095446;28;21477;-77
2023/04/13 05:39:53;;;;;;;8.90;8.60;;;8.20;1.00;;;;;;5094066;28;20468;-78
2023/04/13 05:42:22;;;;;;;9.20;8.60;;;8.30;1.00;;;;;;5098206;27;20462;-80
2023/04/13 05:44:51;;;;;;;9.03;8.73;;;8.40;99.90;;;;;;5092534;27;20488;-81
2023/04/13 05:47:21;;;;;;;9.20;8.70;;;8.50;99.90;;;;;;5096916;28;20494;-82
2023/04/13 05:49:51;;;;;;;9.27;8.57;;;8.40;99.90;;;;;;5099057;28;20445;-82
2023/04/13 05:52:20;;;;;;;9.23;8.80;;;8.50;99.90;;;;;;5101484;28;20585;-80
2023/04/13 05:54:48;;;;;;;9.00;8.60;;;8.50;99.90;;;;;;5100259;28;20529;-81
2023/04/13 05:57:19;;;;;;;8.60;8.40;;;8.40;99.90;;;;;;5090681;28;20910;-80
2023/04/13 05:59:47;;;;;;;9.03;8.63;;;8.50;99.90;;;;;;5098672;27;20450;-81
2023/04/13 06:02:16;;;;;;;9.17;8.87;;;8.50;99.90;;;;;;5081141;28;20452;-82
2023/04/13 06:04:44;;;;;;;8.65;8.45;;;8.50;99.90;;;;;;5096586;28;20551;-82
2023/04/13 06:07:15;;;;;;;9.00;8.60;;;8.60;99.90;;;;;;5100423;28;20190;-81
2023/04/13 06:09:43;;;;;;;9.53;8.90;;;8.60;99.90;;;;;;5099586;28;20454;-83
2023/04/13 06:12:12;;;;;;;9.10;8.70;;;8.70;99.90;;;;;;5109045;28;20452;-82
2023/04/13 06:14:43;;;;;;;8.90;8.50;;;8.80;99.90;;;;;;5099896;28;20491;-81
2023/04/13 06:17:11;;;;;;;8.43;8.23;;;8.80;99.90;;;;;;5104953;27;20468;-84
2023/04/13 06:19:39;;;;;;;9.43;9.07;;;8.80;99.90;;;;;;5108845;28;20460;-81
2023/04/13 06:22:08;;;;;;;8.90;8.50;;;9.00;99.90;;;;;;5109832;28;20448;-81
2023/04/13 06:24:36;;;;;;;8.70;8.30;;;9.10;99.90;;;;;;5105089;27;20464;-82
2023/04/13 06:27:04;;;;;;;8.60;8.40;;;9.10;99.90;;;;;;5106327;27;20514;-80
2023/04/13 06:29:33;;;;;;;9.13;8.83;;;8.90;99.90;;;;;;5101415;27;20449;-81
2023/04/13 06:32:03;;;;;;;9.00;8.80;;;8.80;99.90;;;;;;5102312;28;20787;-81
2023/04/13 06:34:31;;;;;;;8.73;8.53;;;8.80;99.90;;;;;;5099882;28;20530;-84
2023/04/13 06:37:00;;;;;;;9.37;9.17;;;8.90;99.90;;;;;;5092386;28;20469;-84
2023/04/13 06:39:28;;;;;;;8.63;8.30;;;9.00;99.90;;;;;;5098045;28;20484;-79
2023/04/13 06:42:00;;;;;;;9.33;9.10;;;9.10;99.90;;;;;;5103820;28;20472;-80
2023/04/13 06:44:28;;;;;;;8.97;8.37;;;9.20;99.90;;;;;;5104167;28;20513;-81
2023/04/13 06:46:56;;;;;;;9.17;8.77;;;9.10;99.90;;;;;;5103778;28;20444;-83
2023/04/13 06:49:26;;;;;;;8.93;8.57;;;9.10;99.90;;;;;;5102630;28;20445;-82
2023/04/13 06:51:55;;;;;;;8.70;8.50;;;9.10;99.90;;;;;;5101028;27;20462;-80
2023/04/13 06:54:23;;;;;;;9.07;8.37;;;9.20;99.90;;;;;;5101972;28;20464;-82
2023/04/13 06:56:51;;;;;;;9.20;8.73;;;9.10;99.90;;;;;;5101685;28;20480;-82
2023/04/13 06:59:19;;;;;;;8.97;8.57;;;9.20;99.90;;;;;;5088086;28;20465;-81
2023/04/13 07:01:49;;;;;;;8.87;8.47;;;9.50;99.90;;;;;;5099288;28;20814;-81
2023/04/13 07:04:18;;;;;;;9.00;8.70;;;9.40;99.90;;;;;;5098404;28;21308;-81
2023/04/13 07:06:48;;;;;;;9.17;8.87;;;9.50;99.90;;;;;;5099268;27;20520;-83
2023/04/13 07:09:16;;;;;;;8.40;8.20;;;9.40;99.90;;;;;;5083053;28;20457;-82
2023/04/13 07:11:47;;;;;;;8.40;8.20;;;9.40;99.90;;;;;;5102485;28;20464;-81
2023/04/13 07:14:15;;;;;;;8.13;7.93;;;9.40;99.90;;;;;;5106431;28;20437;-81
2023/04/13 07:16:44;;;;;;;8.60;8.40;;;9.30;99.90;;;;;;5101694;28;20526;-82
2023/04/13 07:19:12;;;;;;;8.60;8.40;;;9.40;99.90;;;;;;5099184;28;20461;-82
2023/04/13 07:21:40;;;;;;;8.00;7.70;;;9.40;99.90;;;;;;5101903;28;20957;-82
2023/04/13 07:24:10;;;;;;;8.53;8.27;;;9.30;99.90;;;;;;5101231;28;20453;-81
2023/04/13 07:26:39;;;;;;;8.60;8.30;;;9.30;99.90;;;;;;5102399;28;20469;-84
2023/04/13 07:29:12;;;;;;;8.57;8.30;;;9.30;99.90;;;;;;5085285;28;20460;-82
2023/04/13 07:31:40;;;;;;;8.50;8.10;;;9.40;99.90;;;;;;5102409;28;20488;-83
2023/04/13 07:34:09;;;;;;;8.63;8.30;;;9.30;99.90;;;;;;5103427;28;20442;-81
2023/04/13 07:36:37;;;;;;;8.90;8.50;;;9.20;99.90;;;;;;5109649;28;20568;-82
2023/04/13 07:39:07;;;;;;;8.90;8.53;;;9.20;99.90;;;;;;5107229;28;20965;-80
2023/04/13 07:41:37;;;;;;;8.90;8.50;;;9.20;99.90;;;;;;5099383;28;20438;-83
2023/04/13 07:44:05;;;;;;;9.30;9.00;;;9.30;99.90;;;;;;5087902;28;20429;-80
2023/04/13 07:46:34;;;;;;;8.77;8.47;;;9.40;99.90;;;;;;5104873;28;20460;-83
2023/04/13 07:49:02;;;;;;;9.17;8.77;;;9.40;99.90;;;;;;5103441;28;20486;-83
2023/04/13 07:51:31;;;;;;;9.30;8.70;;;9.30;99.90;;;;;;5099994;28;20437;-82
2023/04/13 07:53:59;;;;;;;10.10;9.33;;;9.40;99.90;;;;;;5104091;28;20489;-81
2023/04/13 07:56:27;;;;;;;9.10;8.90;;;9.40;99.90;;;;;;5103406;28;20481;-81
2023/04/13 07:58:57;;;;;;;9.57;9.13;;;9.60;99.90;;;;;;5108757;28;20452;-86
2023/04/13 08:01:26;;;;;;;8.77;8.47;;;9.50;99.90;;;;;;5115621;28;20443;-83
2023/04/13 08:03:54;;;;;;;9.90;9.20;;;9.60;99.90;;;;;;5115371;28;20821;-85
2023/04/13 08:06:23;;;;;;;9.43;8.93;;;9.70;99.90;;;;;;5114534;28;20466;-83
2023/04/13 08:08:52;;;;;;;9.57;9.17;;;9.70;99.90;;;;;;5106067;28;20445;-80
2023/04/13 08:11:20;;;;;;;9.80;9.20;;;9.80;99.90;;;;;;5103535;28;20944;-80
2023/04/13 08:13:49;;;;;;;9.00;8.60;;;9.80;99.90;;;;;;5106380;28;20439;-82
2023/04/13 08:16:19;;;;;;;9.17;8.83;;;9.70;99.90;;;;;;5105680;28;20574;-82
2023/04/13 08:18:47;;;;;;;8.93;8.50;;;9.80;99.90;;;;;;5087560;28;21330;-81
2023/04/13 08:21:16;;;;;;;9.97;9.27;;;9.80;99.90;;;;;;5101455;28;20519;-82
2023/04/13 08:23:45;;;;;;;9.33;8.90;;;9.70;99.90;;;;;;5107795;28;21006;-85
2023/04/13 08:26:18;;;;;;;9.00;8.50;;;9.70;99.90;;;;;;5104847;28;20472;-80
2023/04/13 08:28:47;;;;;;;10.53;9.73;;;9.80;99.90;;;;;;5108557;28;20428;-81
2023/04/13 08:31:16;;;;;;;9.40;8.90;;;9.80;99.90;;;;;;5107426;28;20455;-80
2023/04/13 08:33:45;;;;;;;9.87;9.37;;;9.70;99.90;;;;;;5108993;28;20471;-81
2023/04/13 08:36:15;;;;;;;10.20;9.60;;;9.50;99.90;;;;;;5084756;28;20538;-81
2023/04/13 08:38:43;;;;;;;10.50;9.83;;;9.60;99.90;;;;;;5107639;28;20460;-81
2023/04/13 08:41:11;;;;;;;10.73;10.23;;;9.60;99.90;;;;;;5084455;28;20444;-82
2023/04/13 08:43:39;;;;;;;9.87;9.57;;;9.70;99.90;;;;;;5100544;28;20533;-82
2023/04/13 08:46:07;;;;;;;11.00;10.40;;;9.80;99.90;;;;;;5100706;28;20480;-80
2023/04/13 08:48:42;;;;;;;9.90;9.47;;;9.80;99.90;;;;;;5101987;28;20499;-82
2023/04/13 08:51:31;;;;;;;9.70;9.20;;;9.90;99.90;;;;;;5104202;28;20857;-81
2023/04/13 08:54:00;;;;;;;9.90;9.60;;;10.00;99.90;;;;;;5109557;28;20461;-82
2023/04/13 08:56:28;;;;;;;10.13;9.60;;;10.00;99.90;;;;;;5105034;28;20483;-83
2023/04/13 08:59:14;;;;;;;9.70;9.43;;;10.00;99.90;;;;;;5093283;28;20445;-83
2023/04/13 09:01:45;;;;;;;9.90;9.50;;;10.00;99.90;;;;;;5104611;28;20450;-83
2023/04/13 09:04:16;;;;;;;10.73;10.17;;;10.00;99.90;;;;;;5108621;28;20958;-82
2023/04/13 09:06:49;;;;;;;10.80;10.40;;;10.00;99.90;;;;;;5109594;28;20471;-82
2023/04/13 09:09:19;;;;;;;10.17;9.77;;;10.00;99.90;;;;;;5106639;28;20950;-83
2023/04/13 09:11:47;;;;;;;9.40;9.10;;;10.10;99.90;;;;;;5106166;28;21004;-83
2023/04/13 09:14:19;;;;;;;10.63;9.53;;;10.00;99.90;;;;;;5106338;28;20490;-83
2023/04/13 09:16:47;;;;;;;10.50;9.90;;;9.90;99.90;;;;;;5109561;28;20482;-80
2023/04/13 09:19:16;;;;;;;10.63;9.70;;;9.90;99.90;;;;;;5104366;27;21072;-80
2023/04/13 09:21:49;;;;;;;9.10;8.80;;;10.10;99.90;;;;;;5103922;28;20462;-84
2023/04/13 09:24:17;;;;;;;9.90;9.50;;;10.30;99.90;;;;;;5108093;28;20468;-81
2023/04/13 09:26:47;;;;;;;9.53;9.23;;;10.60;99.90;;;;;;5109826;28;20486;-81
2023/04/13 09:29:16;;;;;;;10.40;9.80;;;10.90;99.90;;;;;;5107009;28;20449;-81
2023/04/13 09:31:46;;;;;;;9.07;8.70;;;11.10;99.90;;;;;;5108051;28;20572;-82
2023/04/13 09:34:15;;;;;;;9.67;8.90;;;11.20;99.90;;;;;;5105681;28;20521;-81
2023/04/13 09:36:43;;;;;;;8.97;8.67;;;11.30;99.90;;;;;;5106653;28;20482;-82
2023/04/13 09:39:27;;;;;;;8.43;8.23;;;11.20;99.90;;;;;;5105531;28;20969;-83
2023/04/13 09:41:56;;;;;;;8.00;7.80;;;11.30;99.90;;;;;;5106853;28;20446;-83
2023/04/13 09:44:26;;;;;;;8.30;7.80;;;11.30;99.90;;;;;;5100942;28;20479;-83
2023/04/13 09:46:58;;;;;;;8.30;8.00;;;11.30;99.90;;;;;;5108349;28;20449;-83
2023/04/13 09:49:37;;;;;;;8.77;8.27;;;11.20;99.90;;;;;;5102352;28;20504;-84
2023/04/13 09:52:06;;;;;;;8.93;8.50;;;11.20;99.90;;;;;;5104198;28;20444;-84
2023/04/13 09:54:36;;;;;;;9.83;9.23;;;11.10;99.90;;;;;;5089679;28;20454;-82
2023/04/13 09:57:04;;;;;;;9.50;8.93;;;11.00;99.90;;;;;;5090951;27;20488;-83
2023/04/13 09:59:34;;;;;;;9.57;9.13;;;10.80;99.90;;;;;;5105583;28;20450;-82
2023/04/13 10:02:05;;;;;;;9.30;8.90;;;10.90;99.90;;;;;;5088149;28;20446;-81
2023/04/13 10:04:35;;;;;;;9.03;8.73;;;10.90;99.90;;;;;;5101644;28;20960;-84
2023/04/13 10:07:05;;;;;;;8.77;8.30;;;10.90;99.90;;;;;;5101360;28;20435;-82
2023/04/13 10:09:35;;;;;;;8.97;8.67;;;11.00;99.90;;;;;;5091749;28;20501;-82
2023/04/13 10:12:14;;;;;;;8.40;7.90;;;11.00;99.90;;;;;;5105706;28;20445;-82
2023/04/13 10:14:48;;;;;;;8.13;7.77;;;10.90;99.90;;;;;;5107561;28;20508;-82
2023/04/13 10:17:33;;;;;;;7.70;7.40;;;10.80;99.90;;;;;;5104352;28;20441;-82
2023/04/13 10:20:09;;;;;;;8.93;8.30;;;10.90;99.90;;;;;;5107120;28;21046;-82
2023/04/13 10:22:39;;;;;;;8.53;8.10;;;10.70;99.90;;;;;;5100002;28;20970;-84
2023/04/13 10:25:13;;;;;;;8.47;8.20;;;10.80;99.90;;;;;;5095467;28;20462;-81
2023/04/13 10:28:00;;;;;;;8.37;8.10;;;10.80;99.90;;;;;;5106549;28;20452;-84
2023/04/13 10:30:31;;;;;;;9.27;8.40;;;10.80;99.90;;;;;;5111437;28;20457;-83
2023/04/13 10:33:10;;;;;;;8.43;7.93;;;10.90;99.90;;;;;;5107340;28;20449;-80
2023/04/13 10:35:41;;;;;;;8.70;8.00;;;11.00;99.90;;;;;;5109064;28;20501;-82
2023/04/13 10:38:17;;;;;;;8.70;8.30;;;11.20;99.90;;;;;;5099418;28;20467;-85
2023/04/13 10:40:50;;;;;;;8.20;7.90;;;11.10;99.90;;;;;;5121771;27;20468;-86
2023/04/13 10:43:27;;;;;;;8.20;7.90;;;11.20;99.90;;;;;;5096015;28;20441;-85
2023/04/13 10:46:09;;;;;;;9.70;9.10;;;11.40;99.90;;;;;;5117323;28;20469;-81
2023/04/13 10:48:38;;;;;;;11.20;10.30;;;11.60;99.90;;;;;;5111874;28;20445;-80
2023/04/13 10:51:06;;;;;;;9.37;8.97;;;11.80;99.90;;;;;;5109962;28;20453;-80
2023/04/13 10:53:34;;;;;;;8.90;8.60;;;12.00;99.90;;;;;;5102396;28;20541;-83
2023/04/13 10:56:15;;;;;;;8.97;8.60;;;12.00;99.90;;;;;;5101646;28;20479;-84
2023/04/13 10:58:43;;;;;;;9.63;9.23;;;11.90;99.90;;;;;;5107945;28;20469;-81
2023/04/13 11:01:16;;;;;;;9.30;8.90;;;11.80;99.90;;;;;;5105618;28;20481;-83
2023/04/13 11:03:44;;;;;;;9.40;8.67;;;11.70;99.90;;;;;;5106547;28;20450;-83
2023/04/13 11:06:36;;;;;;;8.97;8.57;;;11.70;99.90;;;;;;5092820;28;20472;-85
2023/04/13 11:09:05;;;;;;;9.67;9.27;;;11.50;99.90;;;;;;5104605;28;20540;-83
2023/04/13 11:11:38;;;;;;;8.33;8.13;;;11.50;99.90;;;;;;5098070;28;20445;-81
2023/04/13 11:14:07;;;;;;;8.70;8.40;;;11.50;99.90;;;;;;5106384;28;20441;-81
2023/04/13 11:16:44;;;;;;;8.83;8.23;;;11.50;99.90;;;;;;5102731;28;20994;-78
2023/04/13 11:19:13;;;;;;;8.40;7.90;;;11.50;99.90;;;;;;5104062;28;20882;-83
2023/04/13 11:21:43;;;;;;;8.80;8.30;;;11.50;99.90;;;;;;5086272;28;20449;-81
2023/04/13 11:24:12;;;;;;;9.07;8.63;;;11.60;99.90;;;;;;5090939;28;20453;-80
2023/04/13 11:26:42;;;;;;;8.80;8.40;;;11.50;99.90;;;;;;5099863;28;20482;-79
2023/04/13 11:29:17;;;;;;;9.20;8.63;;;11.50;99.90;;;;;;5098423;28;20522;-79
2023/04/13 11:31:46;;;;;;;9.30;8.90;;;11.50;99.90;;;;;;5099829;28;20449;-82
2023/04/13 11:34:24;;;;;;;9.80;9.40;;;11.20;99.90;;;;;;5100110;28;20478;-81
2023/04/13 11:37:00;;;;;;;9.60;9.30;;;11.20;99.90;;;;;;5102227;28;20467;-80
2023/04/13 11:39:28;;;;;;;10.00;9.63;;;11.10;99.90;;;;;;5098587;28;20617;-81
2023/04/13 11:42:03;;;;;;;10.20;9.80;;;11.00;99.90;;;;;;5081958;28;20483;-82
2023/04/13 11:44:34;;;;;;;11.40;10.80;;;11.00;99.90;;;;;;5104075;28;20445;-82
2023/04/13 11:47:03;;;;;;;12.00;11.30;;;11.00;99.90;;;;;;5101388;28;20445;-82
2023/04/13 11:49:32;;;;;;;11.43;11.03;;;11.20;99.90;;;;;;5097783;28;20452;-81
2023/04/13 11:52:02;;;;;;;12.80;12.40;;;11.40;1.00;;;;;;5095864;28;20463;-82
2023/04/13 11:54:30;;;;;;;12.33;11.83;;;11.80;1.00;;;;;;5101823;28;20462;-81
2023/04/13 11:57:01;;;;;;;12.47;11.93;;;12.00;99.90;;;;;;5085140;28;20452;-85
2023/04/13 11:59:29;;;;;;;11.60;11.30;;;12.10;99.90;;;;;;5094585;28;20515;-81
2023/04/13 12:01:58;;;;;;;11.97;11.67;;;12.30;99.90;;;;;;5099541;28;20449;-80
2023/04/13 12:04:49;;;;;;;11.43;11.03;;;12.20;99.90;;;;;;5101082;28;21027;-80
2023/04/13 12:07:18;;;;;;;11.00;10.70;;;12.20;99.90;;;;;;5098024;27;21049;-80
2023/04/13 12:09:48;;;;;;;10.90;10.57;;;12.10;99.90;;;;;;5097025;28;20987;-83
2023/04/13 12:12:26;;;;;;;11.17;10.73;;;12.00;99.90;;;;;;5097162;28;20864;-81
2023/04/13 12:14:59;;;;;;;11.37;10.97;;;11.80;99.90;;;;;;5101533;27;20464;-80
2023/04/13 12:17:31;;;;;;;11.23;10.73;;;11.70;99.90;;;;;;5099651;27;21053;-80
2023/04/13 12:20:15;;;;;;;11.27;10.97;;;11.70;99.90;;;;;;5102147;28;20483;-80
2023/04/13 12:22:43;;;;;;;11.87;11.40;;;11.60;99.90;;;;;;5101929;28;20450;-81
2023/04/13 12:25:26;;;;;;;11.57;11.27;;;11.60;99.90;;;;;;5100586;28;20480;-78
2023/04/13 12:28:04;;;;;;;11.63;11.23;;;11.90;99.90;;;;;;5099481;28;20977;-79
2023/04/13 12:30:33;;;;;;;11.47;11.17;;;11.90;99.90;;;;;;5098811;28;20818;-79
2023/04/13 12:33:01;;;;;;;11.30;10.90;;;12.00;99.90;;;;;;5099940;28;21136;-80
2023/04/13 12:35:29;;;;;;;10.80;10.60;;;12.20;99.90;;;;;;5093880;28;20484;-83
2023/04/13 12:37:59;;;;;;;11.40;11.20;;;12.30;99.90;;;;;;5091457;28;20449;-81
2023/04/13 12:40:27;;;;;;;10.70;10.30;;;12.50;99.90;;;;;;5104995;28;20492;-81
2023/04/13 12:42:56;;;;;;;9.83;9.63;;;12.50;99.90;;;;;;5107106;28;20786;-80
2023/04/13 12:45:27;;;;;;;10.97;10.67;;;12.50;99.90;;;;;;5105924;28;20564;-84
2023/04/13 12:47:55;;;;;;;11.03;10.83;;;12.50;99.90;;;;;;5100776;27;20462;-80
2023/04/13 12:50:23;;;;;;;10.20;10.00;;;12.70;99.90;;;;;;5102193;28;20456;-83
2023/04/13 12:52:51;;;;;;;10.07;9.87;;;12.60;99.90;;;;;;5101553;28;20448;-80
2023/04/13 12:55:20;;;;;;;9.60;9.30;;;12.60;99.90;;;;;;5098903;28;20471;-81
2023/04/13 12:57:48;;;;;;;9.57;9.37;;;12.40;99.90;;;;;;5112188;28;20465;-83
2023/04/13 13:00:20;;;;;;;9.80;9.60;;;12.40;99.90;;;;;;5112610;28;20489;-83
2023/04/13 13:02:50;;;;;;;9.83;9.60;;;12.30;99.90;;;;;;5111316;28;20498;-82
2023/04/13 13:05:33;;;;;;;9.70;9.40;;;12.30;99.90;;;;;;5113340;28;20588;-84